Time;durP1;ratioP1;P1;durP2;ratioP2;P2;SDS_P1;SDS_P2;PMS_P1;PMS_P2;Temp;Humidity;BMP_temperature;BMP_pressure;BME280_temperature;BME280_humidity;BME280_pressure;Samples;Min_cycle;Max_cycle;Signal;HPM_P1;HPM_P2
2023/10/01 00:03:25;;;;;;;7.33;3.50;;;;;;;;;;8218365;28;20034;-60
2023/10/01 00:07:27;;;;;;;8.57;4.10;;;;;;;;;;8218862;28;20049;-60
2023/10/01 00:11:27;;;;;;;7.45;3.78;;;;;;;;;;8218090;28;20402;-60
2023/10/01 00:15:29;;;;;;;9.48;4.25;;;;;;;;;;8219096;28;20050;-59
2023/10/01 00:19:29;;;;;;;6.53;3.80;;;;;;;;;;8217754;28;20490;-60
2023/10/01 00:23:29;;;;;;;7.25;3.80;;;;;;;;;;8219042;28;20032;-60
2023/10/01 00:27:30;;;;;;;8.10;3.88;;;;;;;;;;8217589;28;20026;-60
2023/10/01 00:31:30;;;;;;;9.30;3.90;;;;;;;;;;8218655;28;20134;-60
2023/10/01 00:35:30;;;;;;;8.38;4.22;;;;;;;;;;8221126;28;20026;-60
2023/10/01 00:39:31;;;;;;;8.13;4.00;;;;;;;;;;8220995;28;20813;-60
2023/10/01 00:43:31;;;;;;;9.60;4.37;;;;;;;;;;8228606;28;20049;-60
2023/10/01 00:47:32;;;;;;;7.97;4.20;;;;;;;;;;8265282;28;20038;-61
2023/10/01 00:51:32;;;;;;;7.32;4.05;;;;;;;;;;8238106;28;20104;-62
2023/10/01 00:55:33;;;;;;;9.55;4.82;;;;;;;;;;8237897;28;20030;-61
2023/10/01 00:59:33;;;;;;;7.23;3.93;;;;;;;;;;8232773;28;20038;-61
2023/10/01 01:03:34;;;;;;;8.63;4.25;;;;;;;;;;8229095;28;20815;-61
2023/10/01 01:07:40;;;;;;;7.15;3.92;;;;;;;;;;8234583;28;20084;-64
2023/10/01 01:11:40;;;;;;;7.47;3.88;;;;;;;;;;8232166;28;20475;-61
2023/10/01 01:15:41;;;;;;;8.18;4.10;;;;;;;;;;8232842;28;20486;-61
2023/10/01 01:19:50;;;;;;;6.78;3.83;;;;;;;;;;8234885;28;20089;-62
2023/10/01 01:23:50;;;;;;;7.53;4.03;;;;;;;;;;8232275;28;21038;-61
2023/10/01 01:27:50;;;;;;;9.57;4.43;;;;;;;;;;8231716;28;20026;-62
2023/10/01 01:32:06;;;;;;;7.85;4.38;;;;;;;;;;8230453;28;21757;-60
2023/10/01 01:36:10;;;;;;;6.28;3.95;;;;;;;;;;8233148;28;20486;-61
2023/10/01 01:40:29;;;;;;;10.23;4.70;;;;;;;;;;8234514;28;20034;-62
2023/10/01 01:44:31;;;;;;;7.95;3.97;;;;;;;;;;8232744;28;20080;-61
2023/10/01 01:48:33;;;;;;;7.40;4.15;;;;;;;;;;8230904;28;20495;-62
2023/10/01 01:52:34;;;;;;;10.43;4.65;;;;;;;;;;8230834;28;20034;-61
2023/10/01 01:56:39;;;;;;;9.17;4.30;;;;;;;;;;8232338;28;20506;-62
2023/10/01 02:01:01;;;;;;;7.90;4.10;;;;;;;;;;8230350;28;20273;-62
2023/10/01 02:05:07;;;;;;;8.82;4.28;;;;;;;;;;8233381;28;20110;-62
2023/10/01 02:09:12;;;;;;;10.27;4.70;;;;;;;;;;8237980;28;20549;-61
2023/10/01 02:13:13;;;;;;;10.55;4.75;;;;;;;;;;8235020;28;20043;-63
2023/10/01 02:17:15;;;;;;;12.05;4.60;;;;;;;;;;8234315;28;20050;-62
2023/10/01 02:21:17;;;;;;;8.98;4.15;;;;;;;;;;8232869;28;20553;-61
2023/10/01 02:25:18;;;;;;;7.88;3.97;;;;;;;;;;8231085;28;20066;-61
2023/10/01 02:29:24;;;;;;;7.30;4.30;;;;;;;;;;8229961;28;20042;-63
2023/10/01 02:33:25;;;;;;;8.85;4.32;;;;;;;;;;8227836;28;20109;-62
2023/10/01 02:37:29;;;;;;;7.30;4.15;;;;;;;;;;8229165;28;20094;-62
2023/10/01 02:41:29;;;;;;;9.68;4.30;;;;;;;;;;8230605;28;20019;-62
2023/10/01 02:45:31;;;;;;;8.93;4.43;;;;;;;;;;8231962;28;20034;-62
2023/10/01 02:49:32;;;;;;;8.68;4.32;;;;;;;;;;8232792;28;20026;-62
2023/10/01 02:53:42;;;;;;;6.90;3.75;;;;;;;;;;8235562;28;20026;-64
2023/10/01 02:57:42;;;;;;;8.50;4.60;;;;;;;;;;8230115;28;20507;-61
2023/10/01 03:01:42;;;;;;;7.90;3.83;;;;;;;;;;8230889;28;20697;-62
2023/10/01 03:05:49;;;;;;;6.80;4.10;;;;;;;;;;8236392;28;20976;-62
2023/10/01 03:09:53;;;;;;;10.70;4.68;;;;;;;;;;8233927;28;20028;-61
2023/10/01 03:13:54;;;;;;;9.30;4.78;;;;;;;;;;8233601;28;20041;-62
2023/10/01 03:17:56;;;;;;;9.63;4.80;;;;;;;;;;8231981;28;20135;-62
2023/10/01 03:26:10;;;;;;;9.80;4.53;;;;;;;;;;8231696;28;20026;-62
2023/10/01 03:30:22;;;;;;;8.27;4.10;;;;;;;;;;8226344;28;20961;-61
2023/10/01 03:34:29;;;;;;;7.00;3.90;;;;;;;;;;8232150;28;20029;-61
2023/10/01 03:38:32;;;;;;;10.23;4.25;;;;;;;;;;8230484;28;20753;-63
2023/10/01 03:42:37;;;;;;;9.07;4.80;;;;;;;;;;8232578;28;20538;-62
2023/10/01 03:46:45;;;;;;;8.32;4.10;;;;;;;;;;8229657;28;21589;-64
2023/10/01 03:50:45;;;;;;;8.55;4.50;;;;;;;;;;8232197;28;20062;-61
2023/10/01 03:58:57;;;;;;;8.95;4.25;;;;;;;;;;8231431;28;20279;-63
2023/10/01 04:02:58;;;;;;;6.95;3.88;;;;;;;;;;8229326;28;20126;-62
2023/10/01 04:07:11;;;;;;;8.05;4.20;;;;;;;;;;8231716;28;20710;-62
2023/10/01 04:11:12;;;;;;;7.13;3.80;;;;;;;;;;8232535;28;20030;-63
2023/10/01 04:15:27;;;;;;;9.57;4.20;;;;;;;;;;8238776;28;20116;-62
2023/10/01 04:19:27;;;;;;;7.03;3.63;;;;;;;;;;8244520;28;20049;-61
2023/10/01 04:23:30;;;;;;;8.55;4.07;;;;;;;;;;8239337;28;20126;-61
2023/10/01 04:27:34;;;;;;;9.60;4.43;;;;;;;;;;8236317;28;20579;-62
2023/10/01 04:31:52;;;;;;;6.47;3.40;;;;;;;;;;8235913;28;20124;-62
2023/10/01 04:35:55;;;;;;;7.32;3.95;;;;;;;;;;8239171;28;20025;-62
2023/10/01 04:39:55;;;;;;;6.13;3.72;;;;;;;;;;8233310;28;20021;-62
2023/10/01 04:43:56;;;;;;;6.38;3.58;;;;;;;;;;8237094;28;20025;-61
2023/10/01 04:47:56;;;;;;;6.22;3.65;;;;;;;;;;8232358;28;20037;-62
2023/10/01 04:51:58;;;;;;;7.05;3.90;;;;;;;;;;8234454;28;20057;-63
2023/10/01 04:56:00;;;;;;;7.82;4.10;;;;;;;;;;8237711;28;20033;-61
2023/10/01 05:00:00;;;;;;;7.72;3.90;;;;;;;;;;8238326;28;20026;-65
2023/10/01 05:04:01;;;;;;;6.35;3.63;;;;;;;;;;8235719;28;20046;-63
2023/10/01 05:08:04;;;;;;;6.68;3.88;;;;;;;;;;8237968;28;20025;-63
2023/10/01 05:12:04;;;;;;;7.80;3.92;;;;;;;;;;8232790;28;20034;-62
2023/10/01 05:16:06;;;;;;;6.50;3.67;;;;;;;;;;8240057;28;20462;-61
2023/10/01 05:20:08;;;;;;;9.55;3.63;;;;;;;;;;8235029;28;20895;-62
2023/10/01 05:24:09;;;;;;;7.43;3.85;;;;;;;;;;8232938;28;20030;-61
2023/10/01 05:28:23;;;;;;;8.38;3.97;;;;;;;;;;8237232;28;20100;-61
2023/10/01 05:32:24;;;;;;;7.38;4.03;;;;;;;;;;8237688;28;20747;-62
2023/10/01 05:36:26;;;;;;;7.85;3.97;;;;;;;;;;8224174;28;20041;-60
2023/10/01 05:40:29;;;;;;;7.38;3.67;;;;;;;;;;8221208;28;20838;-61
2023/10/01 05:44:34;;;;;;;7.65;3.88;;;;;;;;;;8223362;28;20124;-62
2023/10/01 05:48:37;;;;;;;7.05;4.25;;;;;;;;;;8219612;28;20026;-60
2023/10/01 05:52:40;;;;;;;9.90;4.25;;;;;;;;;;8220827;28;20953;-61
2023/10/01 05:56:47;;;;;;;7.45;4.13;;;;;;;;;;8221637;28;20038;-61
2023/10/01 06:00:56;;;;;;;7.05;4.28;;;;;;;;;;8222591;28;20534;-60
2023/10/01 06:04:57;;;;;;;9.48;4.43;;;;;;;;;;8220315;28;20113;-61
2023/10/01 06:08:58;;;;;;;10.02;4.80;;;;;;;;;;8221407;28;20541;-61
2023/10/01 06:13:01;;;;;;;7.80;4.47;;;;;;;;;;8219297;28;20022;-60
2023/10/01 06:17:01;;;;;;;8.77;4.22;;;;;;;;;;8219822;28;20115;-61
2023/10/01 06:21:03;;;;;;;9.60;4.40;;;;;;;;;;8218738;28;20819;-61
2023/10/01 06:25:03;;;;;;;7.45;4.13;;;;;;;;;;8217242;28;20029;-61
2023/10/01 06:29:07;;;;;;;8.70;4.28;;;;;;;;;;8220281;28;20041;-60
2023/10/01 06:33:24;;;;;;;8.52;4.38;;;;;;;;;;8216048;28;20042;-61
2023/10/01 06:37:45;;;;;;;9.57;4.63;;;;;;;;;;8215832;28;20038;-61
2023/10/01 06:41:48;;;;;;;8.70;4.68;;;;;;;;;;8220536;28;20054;-61
2023/10/01 06:45:49;;;;;;;9.98;5.07;;;;;;;;;;8215100;28;20034;-61
2023/10/01 06:54:06;;;;;;;9.43;5.00;;;;;;;;;;8218857;28;20777;-61
2023/10/01 06:58:06;;;;;;;10.45;4.63;;;;;;;;;;8214149;28;20034;-61
2023/10/01 07:02:08;;;;;;;8.10;5.00;;;;;;;;;;8212147;28;20026;-60
2023/10/01 07:06:08;;;;;;;7.40;4.65;;;;;;;;;;8217013;28;20030;-60
2023/10/01 07:10:11;;;;;;;7.85;5.13;;;;;;;;;;8213837;28;20037;-61
2023/10/01 07:14:14;;;;;;;9.77;5.30;;;;;;;;;;8211424;28;20343;-61
2023/10/01 07:18:19;;;;;;;7.05;4.78;;;;;;;;;;8213375;28;20042;-61
2023/10/01 07:22:24;;;;;;;8.00;5.28;;;;;;;;;;8213138;28;20029;-61
2023/10/01 07:26:25;;;;;;;10.93;5.63;;;;;;;;;;8213392;28;20889;-61
2023/10/01 07:30:39;;;;;;;10.50;5.50;;;;;;;;;;8215732;28;20034;-62
2023/10/01 07:34:40;;;;;;;9.85;5.30;;;;;;;;;;8217547;28;20420;-61
2023/10/01 07:38:52;;;;;;;8.83;5.10;;;;;;;;;;8217789;28;20457;-61
2023/10/01 07:42:57;;;;;;;7.75;5.13;;;;;;;;;;8216688;28;21333;-61
2023/10/01 07:46:57;;;;;;;9.02;4.80;;;;;;;;;;8214853;28;20052;-61
2023/10/01 07:51:03;;;;;;;6.85;5.00;;;;;;;;;;8217160;28;20144;-61
2023/10/01 07:55:29;;;;;;;7.90;5.28;;;;;;;;;;8219007;28;20033;-61
2023/10/01 07:59:33;;;;;;;8.05;5.47;;;;;;;;;;8216274;28;20092;-62
2023/10/01 08:03:34;;;;;;;9.30;5.47;;;;;;;;;;8212872;28;20144;-62
2023/10/01 08:07:39;;;;;;;7.25;5.15;;;;;;;;;;8218063;28;20026;-62
2023/10/01 08:15:58;;;;;;;7.43;5.55;;;;;;;;;;8217014;28;22384;-61
2023/10/01 08:20:14;;;;;;;8.33;5.40;;;;;;;;;;8218993;28;20049;-61
2023/10/01 08:24:18;;;;;;;7.40;5.70;;;;;;;;;;8218550;28;20087;-62
2023/10/01 08:32:24;;;;;;;6.80;5.22;;;;;;;;;;8214812;28;20529;-61
2023/10/01 08:36:24;;;;;;;9.77;5.43;;;;;;;;;;8215255;28;20030;-62
2023/10/01 08:40:27;;;;;;;8.95;5.50;;;;;;;;;;8216755;28;20117;-61
2023/10/01 08:44:30;;;;;;;7.93;5.20;;;;;;;;;;8217312;28;20033;-61
2023/10/01 08:48:36;;;;;;;7.03;4.90;;;;;;;;;;8213001;28;20030;-61
2023/10/01 08:52:52;;;;;;;6.90;4.93;;;;;;;;;;8212364;28;20097;-61
2023/10/01 08:56:52;;;;;;;8.05;4.97;;;;;;;;;;8219543;28;20157;-61
2023/10/01 09:01:10;;;;;;;13.43;4.80;;;;;;;;;;8219736;28;21735;-61
2023/10/01 09:05:11;;;;;;;7.97;5.28;;;;;;;;;;8221440;28;20052;-60
2023/10/01 09:09:19;;;;;;;9.15;5.30;;;;;;;;;;8217335;28;20049;-61
2023/10/01 09:13:22;;;;;;;6.72;4.60;;;;;;;;;;8215671;28;20053;-59
2023/10/01 09:17:25;;;;;;;7.93;5.28;;;;;;;;;;8213102;28;20129;-59
2023/10/01 09:21:28;;;;;;;10.73;6.50;;;;;;;;;;8217420;28;20069;-59
2023/10/01 09:25:30;;;;;;;;;;;;;;;;;;8217329;28;20022;-60
2023/10/01 09:29:32;;;;;;;9.38;6.18;;;;;;;;;;8212625;28;19914;-60
2023/10/01 09:33:33;;;;;;;11.30;6.10;;;;;;;;;;8208340;28;20830;-60
2023/10/01 09:37:34;;;;;;;9.63;6.35;;;;;;;;;;8212005;28;20285;-60
2023/10/01 09:41:43;;;;;;;10.75;6.65;;;;;;;;;;8214825;28;20042;-60
2023/10/01 09:45:47;;;;;;;12.98;6.60;;;;;;;;;;8215800;28;20038;-61
2023/10/01 09:49:49;;;;;;;9.30;5.97;;;;;;;;;;8214902;28;20819;-60
2023/10/01 09:54:01;;;;;;;11.32;6.88;;;;;;;;;;8211408;28;20097;-60
2023/10/01 09:58:10;;;;;;;10.87;6.17;;;;;;;;;;8213769;28;20101;-61
2023/10/01 10:02:10;;;;;;;13.13;6.28;;;;;;;;;;8209808;28;21140;-60
2023/10/01 10:06:11;;;;;;;9.95;6.47;;;;;;;;;;8209851;28;20030;-60
2023/10/01 10:10:24;;;;;;;11.93;6.72;;;;;;;;;;8213570;28;20057;-60
2023/10/01 10:14:27;;;;;;;11.45;6.55;;;;;;;;;;8214955;28;20156;-59
2023/10/01 10:18:32;;;;;;;;;;;;;;;;;;8210038;28;20042;-59
2023/10/01 10:22:32;;;;;;;10.00;6.25;;;;;;;;;;8211170;28;19917;-61
2023/10/01 10:27:00;;;;;;;9.37;5.73;;;;;;;;;;8215847;28;20080;-61
2023/10/01 10:31:18;;;;;;;11.65;6.75;;;;;;;;;;8210675;28;20044;-61
2023/10/01 10:35:19;;;;;;;11.23;5.85;;;;;;;;;;8209733;28;20026;-60
2023/10/01 10:39:40;;;;;;;10.05;6.05;;;;;;;;;;8208017;28;20026;-60
2023/10/01 10:43:41;;;;;;;10.98;6.35;;;;;;;;;;8211223;28;20731;-60
2023/10/01 10:48:00;;;;;;;11.05;6.35;;;;;;;;;;8209483;28;20168;-60
2023/10/01 10:52:00;;;;;;;11.05;6.43;;;;;;;;;;8212776;28;20032;-60
2023/10/01 10:56:06;;;;;;;11.68;6.50;;;;;;;;;;8211507;28;20022;-60
2023/10/01 11:00:23;;;;;;;11.38;6.22;;;;;;;;;;8213277;28;20483;-60
2023/10/01 11:04:25;;;;;;;10.95;6.18;;;;;;;;;;8211786;28;20022;-60
2023/10/01 11:08:30;;;;;;;9.68;6.38;;;;;;;;;;8208139;28;20077;-60
2023/10/01 11:12:34;;;;;;;11.25;6.30;;;;;;;;;;8206386;28;20032;-60
2023/10/01 11:16:36;;;;;;;10.55;6.07;;;;;;;;;;8206463;28;20044;-61
2023/10/01 11:20:45;;;;;;;9.57;6.30;;;;;;;;;;8210943;28;20023;-60
2023/10/01 11:24:46;;;;;;;10.00;6.22;;;;;;;;;;8206232;28;20080;-60
2023/10/01 11:28:46;;;;;;;13.93;6.65;;;;;;;;;;8214807;28;20116;-64
2023/10/01 11:37:18;;;;;;;10.85;6.30;;;;;;;;;;8205386;28;20037;-60
2023/10/01 11:41:38;;;;;;;16.02;6.60;;;;;;;;;;8174958;28;20050;-60
2023/10/01 11:45:48;;;;;;;12.18;6.22;;;;;;;;;;8208377;28;20038;-59
2023/10/01 11:50:06;;;;;;;9.80;6.20;;;;;;;;;;8210605;28;20184;-60
2023/10/01 11:54:10;;;;;;;10.55;6.05;;;;;;;;;;8209578;28;20045;-60
2023/10/01 11:58:16;;;;;;;9.30;5.85;;;;;;;;;;8209917;28;20604;-60
2023/10/01 12:02:20;;;;;;;9.30;6.30;;;;;;;;;;8202985;28;20034;-60
2023/10/01 12:06:33;;;;;;;10.40;6.60;;;;;;;;;;8206035;28;20024;-59
2023/10/01 12:10:36;;;;;;;12.50;7.30;;;;;;;;;;8212064;28;20088;-59
2023/10/01 12:14:52;;;;;;;;;;;;;;;;;;8208930;28;20057;-59
2023/10/01 12:18:52;;;;;;;14.02;6.55;;;;;;;;;;8206490;28;19925;-60
2023/10/01 12:23:11;;;;;;;10.50;6.78;;;;;;;;;;8195270;28;20038;-60
2023/10/01 12:27:35;;;;;;;12.68;7.05;;;;;;;;;;8196821;28;20801;-59
2023/10/01 12:31:31;;;;;;;12.95;7.43;;;;;;;;;;8207372;28;20046;-59
2023/10/01 12:35:32;;;;;;;11.43;6.57;;;;;;;;;;8214891;28;20231;-59
2023/10/01 12:39:32;;;;;;;12.38;6.75;;;;;;;;;;8207247;28;20026;-61
2023/10/01 12:43:42;;;;;;;10.65;6.88;;;;;;;;;;8202409;28;20022;-60
2023/10/01 12:47:50;;;;;;;11.80;6.72;;;;;;;;;;8214680;28;20045;-60
2023/10/01 12:51:53;;;;;;;10.52;6.72;;;;;;;;;;8212931;28;20616;-59
2023/10/01 12:55:54;;;;;;;;;;;;;;;;;;8216097;28;20123;-60
2023/10/01 13:04:22;;;;;;;12.43;8.10;;;;;;;;;;8212178;28;20120;-59
2023/10/01 13:08:29;;;;;;;12.18;7.40;;;;;;;;;;8213079;28;20094;-59
2023/10/01 13:12:31;;;;;;;10.30;6.78;;;;;;;;;;8215091;28;20036;-60
2023/10/01 13:16:34;;;;;;;9.85;6.68;;;;;;;;;;8211041;28;20157;-60
2023/10/01 13:21:19;;;;;;;11.83;7.43;;;;;;;;;;8220569;28;20065;-60
2023/10/01 13:24:54;;;;;;;15.02;7.90;;;;;;;;;;8212910;28;20285;-60
2023/10/01 13:28:59;;;;;;;12.38;7.45;;;;;;;;;;8214941;28;20044;-59
2023/10/01 13:33:14;;;;;;;13.45;7.90;;;;;;;;;;8213454;28;20609;-60
2023/10/01 13:38:15;;;;;;;15.30;8.05;;;;;;;;;;8214210;28;20327;-60
2023/10/01 14:11:39;;;;;;;12.88;8.13;;;;;;;;;;8215515;28;20096;-60
2023/10/01 14:15:40;;;;;;;14.48;8.25;;;;;;;;;;8213385;28;20040;-60
2023/10/01 14:19:41;;;;;;;11.27;7.35;;;;;;;;;;8214564;28;20166;-60
2023/10/01 14:23:44;;;;;;;12.00;7.80;;;;;;;;;;8214508;28;20103;-59
2023/10/01 14:27:45;;;;;;;13.48;7.55;;;;;;;;;;8215361;28;20096;-60
2023/10/01 14:31:51;;;;;;;13.23;8.00;;;;;;;;;;8210262;28;20399;-59
2023/10/01 14:35:52;;;;;;;11.55;7.63;;;;;;;;;;8211659;28;20124;-61
2023/10/01 14:39:52;;;;;;;11.80;7.72;;;;;;;;;;8208771;28;20538;-59
2023/10/01 14:43:52;;;;;;;14.32;7.90;;;;;;;;;;8212023;28;21587;-59
2023/10/01 14:47:54;;;;;;;13.02;7.90;;;;;;;;;;8212489;28;20121;-60
2023/10/01 14:51:59;;;;;;;15.68;8.98;;;;;;;;;;8213477;28;20058;-59
2023/10/01 14:56:04;;;;;;;13.02;7.95;;;;;;;;;;8213719;28;20030;-60
2023/10/01 15:00:05;;;;;;;13.00;7.68;;;;;;;;;;8211066;28;20053;-60
2023/10/01 15:04:17;;;;;;;14.13;8.35;;;;;;;;;;8211168;28;20018;-60
2023/10/01 15:08:20;;;;;;;15.45;8.38;;;;;;;;;;8212286;28;20077;-59
2023/10/01 15:12:26;;;;;;;14.18;8.75;;;;;;;;;;8210279;28;20141;-59
2023/10/01 15:16:30;;;;;;;14.65;8.68;;;;;;;;;;8209829;28;20117;-61
2023/10/01 15:20:47;;;;;;;14.00;8.30;;;;;;;;;;8211663;28;20048;-60
2023/10/01 15:24:49;;;;;;;12.95;8.32;;;;;;;;;;8218743;28;20095;-60
2023/10/01 15:28:52;;;;;;;14.57;8.17;;;;;;;;;;8211479;28;20160;-60
2023/10/01 15:33:00;;;;;;;13.88;8.25;;;;;;;;;;8208376;28;20123;-60
2023/10/01 15:37:02;;;;;;;13.77;8.25;;;;;;;;;;8210893;28;20038;-61
2023/10/01 15:41:02;;;;;;;13.53;7.93;;;;;;;;;;8208251;28;20509;-61
2023/10/01 15:45:15;;;;;;;14.73;8.13;;;;;;;;;;8206513;28;20173;-61
2023/10/01 15:49:19;;;;;;;14.57;9.05;;;;;;;;;;8210863;28;20096;-60
2023/10/01 15:53:21;;;;;;;14.43;8.60;;;;;;;;;;8210600;28;20038;-61
2023/10/01 15:57:21;;;;;;;13.02;7.93;;;;;;;;;;8208872;28;20089;-61
2023/10/01 16:01:23;;;;;;;13.27;8.60;;;;;;;;;;8208231;28;20050;-60
2023/10/01 16:05:23;;;;;;;14.95;8.45;;;;;;;;;;8214026;28;20712;-60
2023/10/01 16:09:23;;;;;;;14.57;8.37;;;;;;;;;;8220645;28;20340;-60
2023/10/01 16:13:28;;;;;;;13.03;8.13;;;;;;;;;;8218286;28;20034;-60
2023/10/01 16:17:31;;;;;;;13.93;7.10;;;;;;;;;;8229199;28;20042;-60
2023/10/01 16:21:41;;;;;;;12.50;6.80;;;;;;;;;;8216439;28;20101;-62
2023/10/01 16:25:41;;;;;;;10.75;6.45;;;;;;;;;;8215504;28;20534;-61
2023/10/01 16:29:43;;;;;;;8.88;6.10;;;;;;;;;;8217394;28;20594;-60
2023/10/01 16:33:44;;;;;;;9.40;5.47;;;;;;;;;;8220457;28;20039;-60
2023/10/01 16:37:44;;;;;;;10.65;6.47;;;;;;;;;;8217662;28;20038;-59
2023/10/01 16:41:44;;;;;;;17.57;6.47;;;;;;;;;;8212091;28;20371;-60
2023/10/01 16:45:45;;;;;;;8.75;6.15;;;;;;;;;;8214982;28;20034;-60
2023/10/01 16:49:47;;;;;;;9.70;6.03;;;;;;;;;;8215790;28;20030;-60
2023/10/01 16:53:51;;;;;;;12.13;6.30;;;;;;;;;;8215296;28;20034;-61
2023/10/01 16:57:57;;;;;;;8.57;5.53;;;;;;;;;;8215699;28;20612;-60
2023/10/01 17:01:58;;;;;;;9.55;6.03;;;;;;;;;;8217083;28;20544;-61
2023/10/01 17:06:06;;;;;;;9.60;5.95;;;;;;;;;;8216456;28;20033;-61
2023/10/01 17:10:07;;;;;;;10.23;6.00;;;;;;;;;;8217948;28;20042;-61
2023/10/01 17:14:14;;;;;;;9.18;5.63;;;;;;;;;;8216923;28;20033;-61
2023/10/01 17:18:16;;;;;;;8.38;5.70;;;;;;;;;;8217005;28;20069;-60
2023/10/01 17:22:16;;;;;;;10.02;6.15;;;;;;;;;;8218243;28;20033;-60
2023/10/01 17:26:17;;;;;;;15.83;5.97;;;;;;;;;;8219148;28;20041;-61
2023/10/01 17:30:18;;;;;;;9.63;6.07;;;;;;;;;;8216198;28;20863;-60
2023/10/01 17:34:23;;;;;;;14.60;5.90;;;;;;;;;;8218881;28;20053;-60
2023/10/01 17:38:23;;;;;;;9.38;5.93;;;;;;;;;;8218238;28;20105;-60
2023/10/01 17:42:25;;;;;;;10.70;5.75;;;;;;;;;;8221681;28;20142;-61
2023/10/01 17:46:31;;;;;;;9.30;5.63;;;;;;;;;;8217738;28;20041;-60
2023/10/01 17:50:32;;;;;;;10.38;5.78;;;;;;;;;;8214277;28;20026;-61
2023/10/01 17:54:35;;;;;;;11.77;6.72;;;;;;;;;;8214703;28;20027;-60
2023/10/01 17:58:35;;;;;;;12.10;6.18;;;;;;;;;;8214834;28;20113;-61
2023/10/01 18:02:38;;;;;;;11.77;6.30;;;;;;;;;;8210744;28;20062;-61
2023/10/01 18:06:53;;;;;;;9.27;5.80;;;;;;;;;;8214249;28;20273;-60
2023/10/01 18:10:59;;;;;;;11.82;6.57;;;;;;;;;;8211142;28;22187;-60
2023/10/01 18:14:59;;;;;;;9.82;5.85;;;;;;;;;;8210963;28;20048;-60
2023/10/01 18:19:06;;;;;;;10.90;6.22;;;;;;;;;;8209397;28;20626;-60
2023/10/01 18:23:11;;;;;;;11.93;6.93;;;;;;;;;;8211027;28;20041;-60
2023/10/01 18:27:12;;;;;;;12.25;6.78;;;;;;;;;;8213284;28;20164;-60
2023/10/01 18:31:13;;;;;;;13.20;6.75;;;;;;;;;;8206227;28;20684;-60
2023/10/01 18:35:17;;;;;;;12.63;7.10;;;;;;;;;;8209947;28;20116;-60
2023/10/01 18:39:26;;;;;;;12.63;6.65;;;;;;;;;;8210262;28;20629;-61
2023/10/01 18:43:26;;;;;;;11.15;6.25;;;;;;;;;;8208282;28;20052;-60
2023/10/01 18:47:27;;;;;;;12.63;6.22;;;;;;;;;;8202902;28;20045;-61
2023/10/01 18:51:27;;;;;;;11.40;6.43;;;;;;;;;;8211881;28;20035;-60
2023/10/01 18:55:28;;;;;;;12.05;6.85;;;;;;;;;;8212364;28;20045;-60
2023/10/01 18:59:28;;;;;;;8.05;5.28;;;;;;;;;;8213388;28;20069;-60
2023/10/01 19:03:28;;;;;;;10.27;6.07;;;;;;;;;;8209871;28;20134;-60
2023/10/01 19:07:29;;;;;;;11.23;6.17;;;;;;;;;;8215637;28;20021;-61
2023/10/01 19:11:29;;;;;;;10.05;5.72;;;;;;;;;;8214393;28;20279;-60
2023/10/01 19:15:31;;;;;;;11.75;5.63;;;;;;;;;;8214142;28;20038;-60
2023/10/01 19:19:34;;;;;;;10.77;5.80;;;;;;;;;;8213845;28;20046;-60
2023/10/01 19:23:39;;;;;;;13.30;6.13;;;;;;;;;;8212820;28;20077;-60
2023/10/01 19:27:39;;;;;;;;;;;;;;;;;;8215904;28;20084;-60
2023/10/01 19:31:43;;;;;;;10.07;5.70;;;;;;;;;;8213604;28;19925;-61
2023/10/01 19:35:43;;;;;;;12.73;6.60;;;;;;;;;;8214279;28;20498;-60
2023/10/01 19:39:44;;;;;;;12.13;6.20;;;;;;;;;;8208416;28;20029;-60
2023/10/01 19:43:47;;;;;;;10.30;5.90;;;;;;;;;;8209678;28;20084;-60
2023/10/01 19:47:48;;;;;;;10.27;5.43;;;;;;;;;;8206298;28;20370;-61
2023/10/01 19:51:50;;;;;;;9.10;5.55;;;;;;;;;;8210138;28;20030;-60
2023/10/01 19:55:54;;;;;;;9.30;5.72;;;;;;;;;;8208651;28;20072;-60
2023/10/01 19:59:54;;;;;;;11.60;5.93;;;;;;;;;;8208213;28;20153;-60
2023/10/01 20:04:02;;;;;;;10.52;5.90;;;;;;;;;;8213325;28;20088;-61
2023/10/01 20:08:03;;;;;;;11.02;5.90;;;;;;;;;;8215429;28;20132;-61
2023/10/01 20:12:04;;;;;;;12.63;6.45;;;;;;;;;;8214552;28;20827;-60
2023/10/01 20:16:10;;;;;;;13.55;6.55;;;;;;;;;;8214132;28;20042;-61
2023/10/01 20:20:16;;;;;;;10.75;6.35;;;;;;;;;;8210597;28;20018;-61
2023/10/01 20:24:22;;;;;;;13.25;6.57;;;;;;;;;;8211850;28;20031;-61
2023/10/01 20:28:32;;;;;;;9.52;5.68;;;;;;;;;;8217434;28;20033;-60
2023/10/01 20:32:32;;;;;;;12.20;6.80;;;;;;;;;;8212821;28;20053;-60
2023/10/01 20:36:37;;;;;;;9.27;5.80;;;;;;;;;;8215849;28;20018;-61
2023/10/01 20:40:46;;;;;;;11.68;6.93;;;;;;;;;;8210767;28;20033;-61
2023/10/01 20:44:50;;;;;;;13.02;7.03;;;;;;;;;;8210822;28;20109;-60
2023/10/01 20:48:52;;;;;;;15.43;7.78;;;;;;;;;;8216225;28;20067;-60
2023/10/01 20:53:00;;;;;;;12.82;7.22;;;;;;;;;;8218795;28;20034;-60
2023/10/01 20:57:01;;;;;;;11.98;6.22;;;;;;;;;;8224365;28;20026;-60
2023/10/01 21:01:11;;;;;;;13.98;6.85;;;;;;;;;;8218790;28;20045;-60
2023/10/01 21:05:13;;;;;;;13.02;7.07;;;;;;;;;;8220396;28;20034;-60
2023/10/01 21:09:22;;;;;;;12.00;6.73;;;;;;;;;;8221969;28;20832;-61
2023/10/01 21:13:28;;;;;;;14.85;7.38;;;;;;;;;;8233832;28;20058;-61
2023/10/01 21:17:29;;;;;;;14.40;6.75;;;;;;;;;;8219836;28;20038;-61
2023/10/01 21:21:30;;;;;;;11.75;6.57;;;;;;;;;;8222435;28;20023;-61
2023/10/01 21:25:34;;;;;;;12.95;6.82;;;;;;;;;;8223227;28;20026;-62
2023/10/01 21:29:36;;;;;;;11.45;6.72;;;;;;;;;;8221028;28;20061;-62
2023/10/01 21:33:36;;;;;;;11.88;6.70;;;;;;;;;;8231872;28;20165;-61
2023/10/01 21:37:36;;;;;;;14.40;7.57;;;;;;;;;;8222744;28;20551;-61
2023/10/01 21:42:00;;;;;;;16.65;7.68;;;;;;;;;;8217224;28;20046;-61
2023/10/01 21:46:02;;;;;;;;;;;;;;;;;;8220193;28;20065;-62
2023/10/01 21:50:08;;;;;;;17.58;7.82;;;;;;;;;;8218866;28;19995;-61
2023/10/01 21:54:12;;;;;;;16.23;7.93;;;;;;;;;;8221009;28;20035;-61
2023/10/01 21:58:17;;;;;;;17.92;8.27;;;;;;;;;;8215947;28;20030;-62
2023/10/01 22:02:18;;;;;;;16.80;8.50;;;;;;;;;;8215411;28;20699;-61
2023/10/01 22:06:28;;;;;;;17.85;8.82;;;;;;;;;;8214466;28;20048;-61
2023/10/01 22:10:38;;;;;;;16.75;8.27;;;;;;;;;;8219473;28;20823;-62
2023/10/01 22:14:38;;;;;;;13.93;7.82;;;;;;;;;;8221960;28;20030;-61
2023/10/01 22:18:39;;;;;;;14.73;8.07;;;;;;;;;;8218366;28;20041;-61
2023/10/01 22:22:39;;;;;;;15.40;8.30;;;;;;;;;;8219558;28;20021;-61
2023/10/01 22:26:40;;;;;;;13.93;7.78;;;;;;;;;;8218588;28;20039;-61
2023/10/01 22:30:40;;;;;;;14.67;8.23;;;;;;;;;;8216044;28;20097;-61
2023/10/01 22:34:56;;;;;;;15.75;7.80;;;;;;;;;;8222887;28;20069;-61
2023/10/01 22:39:00;;;;;;;14.48;8.15;;;;;;;;;;8219907;28;20030;-61
2023/10/01 22:43:01;;;;;;;;;;;;;;;;;;8217820;28;20141;-61
2023/10/01 22:47:12;;;;;;;20.58;8.52;;;;;;;;;;8221040;28;19917;-62
2023/10/01 22:51:27;;;;;;;17.55;8.60;;;;;;;;;;8221702;28;20693;-61
2023/10/01 22:55:27;;;;;;;15.45;8.07;;;;;;;;;;8224416;28;20054;-61
2023/10/01 22:59:28;;;;;;;17.02;8.75;;;;;;;;;;8219628;28;20033;-61
2023/10/01 23:03:33;;;;;;;15.67;8.10;;;;;;;;;;8219563;28;20034;-61
2023/10/01 23:07:34;;;;;;;17.92;8.73;;;;;;;;;;8222513;28;20042;-61
2023/10/01 23:11:40;;;;;;;15.15;8.00;;;;;;;;;;8221739;28;20423;-61
2023/10/01 23:15:41;;;;;;;16.85;8.23;;;;;;;;;;8219812;28;20038;-64
2023/10/01 23:19:53;;;;;;;15.27;7.72;;;;;;;;;;8222823;28;20025;-62
2023/10/01 23:23:55;;;;;;;17.55;8.27;;;;;;;;;;8219828;28;20029;-61
2023/10/01 23:27:55;;;;;;;16.33;7.78;;;;;;;;;;8220646;28;20112;-61
2023/10/01 23:36:14;;;;;;;13.88;7.38;;;;;;;;;;8219349;28;20136;-61
2023/10/01 23:40:23;;;;;;;13.15;7.38;;;;;;;;;;8218457;28;20050;-62
2023/10/01 23:44:23;;;;;;;14.10;7.00;;;;;;;;;;8220670;28;20034;-62
2023/10/01 23:48:24;;;;;;;11.93;6.65;;;;;;;;;;8217666;28;20038;-61
2023/10/01 23:52:30;;;;;;;13.73;7.10;;;;;;;;;;8216900;28;20045;-61
2023/10/01 23:56:32;;;;;;;15.00;7.57;;;;;;;;;;8218319;28;20048;-61
